Grand Mercury — HOOC — position and weather

sailwx.info

Track history (hours):
 
Tides and Currents Weather Stations Pressure Air Temp Water Temp Dewpoint Dewpoint Depression Visibility Wind Speed Wind Dir Waves Ship Positions

Grand Mercury

Last reported at 2017-Jun-25 16:47 UTC. Time now 2017-Jun-27 01:57 UTC.
Position N 09°34' W 079°49'.

Length 200 m; draft 9.2 m.

Type: Cargo ship. MMSI: 355649000.

Date/timePositionNaut miles runAvg speedWind from/ knotsBaromVisibWave heightAir tempDewpointWater temp
2017-Jun-25 16:47N 09°34' W 079°49'519.1
2017-Jun-25 16:31N 09°30' W 079°52'714.9
2017-Jun-25 16:00N 09°23' W 079°55'4 7.9
2017-Jun-25 15:30N 09°19' W 079°55'2 4.1
2017-Jun-25 15:00N 09°17' W 079°55'0 0.4
2017-Jun-25 14:30N 09°16' W 079°55'0 0.5
2017-Jun-25 13:30N 09°16' W 079°55'2 4.7
2017-Jun-25 13:00N 09°14' W 079°55'  
2017-Jun-18 08:30N 23°58' W 112°45'1518.5
2017-Jun-18 07:40N 24°07' W 112°58'318.6
2017-Jun-18 07:30N 24°09' W 113°01'1118.7
2017-Jun-18 06:56N 24°16' W 113°10'918.5
2017-Jun-18 06:27N 24°21' W 113°18'818.4
2017-Jun-18 06:00N 24°26' W 113°25'3318.3
2017-Jun-18 04:13N 24°45' W 113°55'418.0
2017-Jun-18 04:00N 24°47' W 113°58'1018.1
2017-Jun-18 03:28N 24°53' W 114°07'1817.9
2017-Jun-18 02:26N 25°04' W 114°23'817.8
2017-Jun-18 01:58N 25°09' W 114°30'2518.2
2017-Jun-18 00:34N 25°24' W 114°53'417.3
2017-Jun-18 00:22N 25°26' W 114°56'1617.6
2017-Jun-17 23:28N 25°35' W 115°10'917.8
2017-Jun-17 22:58N 25°40' W 115°18'1917.9
2017-Jun-17 21:55N 25°51' W 115°35'817.8
2017-Jun-17 21:29N 25°56' W 115°42'917.8
2017-Jun-17 21:00N 26°01' W 115°50'1717.8
2017-Jun-17 20:04N 26°11' W 116°05'117.6
2017-Jun-17 19:59N 26°12' W 116°06'1017.8
2017-Jun-17 19:25N 26°18' W 116°15'717.7
2017-Jun-17 18:59N 26°22' W 116°22'917.9
2017-Jun-17 18:30N 26°27' W 116°30'2417.7
2017-Jun-17 17:07N 26°42' W 116°52'317.4
2017-Jun-17 16:58N 26°43' W 116°54'1117.4
2017-Jun-17 16:19N 26°50' W 117°05'517.7
2017-Jun-17 16:00N 26°53' W 117°09'2117.5
2017-Jun-17 14:50N 27°06' W 117°28'1717.4
2017-Jun-17 13:52N 27°15' W 117°44'1017.5
2017-Jun-17 13:16N 27°21' W 117°53'518.0
2017-Jun-17 13:00N 27°24' W 117°57'917.8
2017-Jun-17 12:31N 27°29' W 118°06'1618.0
2017-Jun-17 11:38N 27°38' W 118°20'518.2
2017-Jun-17 11:22N 27°41' W 118°24'717.9
2017-Jun-17 10:58N 27°46' W 118°30'1417.6
2017-Jun-17 10:09N 27°54' W 118°44'317.1
2017-Jun-17 10:00N 27°56' W 118°46'917.2
2017-Jun-17 09:30N 28°01' W 118°54'817.1
2017-Jun-17 09:01N 28°06' W 119°02'917.3
2017-Jun-17 08:29N 28°11' W 119°10'917.6
2017-Jun-17 07:58N 28°17' W 119°18'817.3
2017-Jun-17 07:30N 28°21' W 119°26'2317.3
2017-Jun-17 06:11N 28°35' W 119°47'517.3
2017-Jun-17 05:54N 28°38' W 119°51'717.5
2017-Jun-17 05:31N 28°42' W 119°57'917.4
2017-Jun-17 04:58N 28°47' W 120°06'1417.3
2017-Jun-17 04:09N 28°56' W 120°19'317.5
2017-Jun-17 04:00N 28°57' W 120°21'3117.3
2017-Jun-17 02:14N 29°16' W 120°50'6317.9
2017-Jun-16 22:44N 29°52' W 121°48'517.7
2017-Jun-16 22:28N 29°55' W 121°52'817.5
2017-Jun-16 22:00N 29°60' W 122°00'15517.6
2017-Jun-16 13:09N 31°22' W 124°33'  
Track history (hours):
 
Tides and Currents Weather Stations Pressure Air Temp Water Temp Dewpoint Dewpoint Depression Visibility Wind Speed Wind Dir Waves Ship Positions

Grand Mercury

Last reported at 2017-Jun-25 16:47 UTC. Time now 2017-Jun-27 01:57 UTC.
Position N 09°34' W 079°49'.

Length 200 m; draft 9.2 m.

Type: Cargo ship. MMSI: 355649000.

Date/timePositionNaut miles runAvg speedWind from/ knotsBaromVisibWave heightAir tempDewpointWater temp
2017-Jun-25 16:47N 09°34' W 079°49'519.1
2017-Jun-25 16:31N 09°30' W 079°52'714.9
2017-Jun-25 16:00N 09°23' W 079°55'4 7.9
2017-Jun-25 15:30N 09°19' W 079°55'2 4.1
2017-Jun-25 15:00N 09°17' W 079°55'0 0.4
2017-Jun-25 14:30N 09°16' W 079°55'0 0.5
2017-Jun-25 13:30N 09°16' W 079°55'2 4.7
2017-Jun-25 13:00N 09°14' W 079°55'  
2017-Jun-18 08:30N 23°58' W 112°45'1518.5
2017-Jun-18 07:40N 24°07' W 112°58'318.6
2017-Jun-18 07:30N 24°09' W 113°01'1118.7
2017-Jun-18 06:56N 24°16' W 113°10'918.5
2017-Jun-18 06:27N 24°21' W 113°18'818.4
2017-Jun-18 06:00N 24°26' W 113°25'3318.3
2017-Jun-18 04:13N 24°45' W 113°55'418.0
2017-Jun-18 04:00N 24°47' W 113°58'1018.1
2017-Jun-18 03:28N 24°53' W 114°07'1817.9
2017-Jun-18 02:26N 25°04' W 114°23'817.8
2017-Jun-18 01:58N 25°09' W 114°30'2518.2
2017-Jun-18 00:34N 25°24' W 114°53'417.3
2017-Jun-18 00:22N 25°26' W 114°56'1617.6
2017-Jun-17 23:28N 25°35' W 115°10'917.8
2017-Jun-17 22:58N 25°40' W 115°18'1917.9
2017-Jun-17 21:55N 25°51' W 115°35'817.8
2017-Jun-17 21:29N 25°56' W 115°42'917.8
2017-Jun-17 21:00N 26°01' W 115°50'1717.8
2017-Jun-17 20:04N 26°11' W 116°05'117.6
2017-Jun-17 19:59N 26°12' W 116°06'1017.8
2017-Jun-17 19:25N 26°18' W 116°15'717.7
2017-Jun-17 18:59N 26°22' W 116°22'917.9
2017-Jun-17 18:30N 26°27' W 116°30'2417.7
2017-Jun-17 17:07N 26°42' W 116°52'317.4
2017-Jun-17 16:58N 26°43' W 116°54'1117.4
2017-Jun-17 16:19N 26°50' W 117°05'517.7
2017-Jun-17 16:00N 26°53' W 117°09'2117.5
2017-Jun-17 14:50N 27°06' W 117°28'1717.4
2017-Jun-17 13:52N 27°15' W 117°44'1017.5
2017-Jun-17 13:16N 27°21' W 117°53'518.0
2017-Jun-17 13:00N 27°24' W 117°57'917.8
2017-Jun-17 12:31N 27°29' W 118°06'1618.0
2017-Jun-17 11:38N 27°38' W 118°20'518.2
2017-Jun-17 11:22N 27°41' W 118°24'717.9
2017-Jun-17 10:58N 27°46' W 118°30'1417.6
2017-Jun-17 10:09N 27°54' W 118°44'317.1
2017-Jun-17 10:00N 27°56' W 118°46'917.2
2017-Jun-17 09:30N 28°01' W 118°54'817.1
2017-Jun-17 09:01N 28°06' W 119°02'917.3
2017-Jun-17 08:29N 28°11' W 119°10'917.6
2017-Jun-17 07:58N 28°17' W 119°18'817.3
2017-Jun-17 07:30N 28°21' W 119°26'2317.3
2017-Jun-17 06:11N 28°35' W 119°47'517.3
2017-Jun-17 05:54N 28°38' W 119°51'717.5
2017-Jun-17 05:31N 28°42' W 119°57'917.4
2017-Jun-17 04:58N 28°47' W 120°06'1417.3
2017-Jun-17 04:09N 28°56' W 120°19'317.5
2017-Jun-17 04:00N 28°57' W 120°21'3117.3
2017-Jun-17 02:14N 29°16' W 120°50'6317.9
2017-Jun-16 22:44N 29°52' W 121°48'517.7
2017-Jun-16 22:28N 29°55' W 121°52'817.5
2017-Jun-16 22:00N 29°60' W 122°00'15517.6
2017-Jun-16 13:09N 31°22' W 124°33'  

Dump ship's entire track history